sensor_id;sensor_type;location;lat;lon;timestamp;pressure;altitude;pressure_sealevel;temperature;humidity
66681;BME280;53575;51.366;12.350;2023-03-14T00:00:30;98057.53;;;10.61;100.00
66681;BME280;53575;51.366;12.350;2023-03-14T00:02:55;98058.94;;;10.47;100.00
66681;BME280;53575;51.366;12.350;2023-03-14T00:05:21;98058.75;;;10.52;100.00
66681;BME280;53575;51.366;12.350;2023-03-14T00:07:46;98068.66;;;10.44;100.00
66681;BME280;53575;51.366;12.350;2023-03-14T00:10:14;98066.84;;;10.46;100.00
66681;BME280;53575;51.366;12.350;2023-03-14T00:12:40;98071.03;;;10.50;100.00
66681;BME280;53575;51.366;12.350;2023-03-14T00:15:07;98062.72;;;10.40;100.00
66681;BME280;53575;51.366;12.350;2023-03-14T00:17:34;98064.06;;;10.51;100.00
66681;BME280;53575;51.366;12.350;2023-03-14T00:20:00;98079.00;;;10.47;100.00
66681;BME280;53575;51.366;12.350;2023-03-14T00:22:34;98091.41;;;10.42;100.00
66681;BME280;53575;51.366;12.350;2023-03-14T00:25:00;98088.94;;;10.37;100.00
66681;BME280;53575;51.366;12.350;2023-03-14T00:27:25;98083.44;;;10.23;100.00
66681;BME280;53575;51.366;12.350;2023-03-14T00:29:51;98073.78;;;10.25;100.00
66681;BME280;53575;51.366;12.350;2023-03-14T00:32:16;98067.53;;;10.29;100.00
66681;BME280;53575;51.366;12.350;2023-03-14T00:34:41;98075.66;;;10.21;100.00
66681;BME280;53575;51.366;12.350;2023-03-14T00:37:07;98076.16;;;10.31;100.00
66681;BME280;53575;51.366;12.350;2023-03-14T00:39:32;98100.38;;;10.35;100.00
66681;BME280;53575;51.366;12.350;2023-03-14T00:41:57;98112.63;;;10.33;100.00
66681;BME280;53575;51.366;12.350;2023-03-14T00:44:23;98103.13;;;10.32;100.00
66681;BME280;53575;51.366;12.350;2023-03-14T00:46:48;98095.28;;;10.32;100.00
66681;BME280;53575;51.366;12.350;2023-03-14T00:49:14;98081.19;;;10.36;100.00
66681;BME280;53575;51.366;12.350;2023-03-14T00:51:39;98092.56;;;10.35;100.00
66681;BME280;53575;51.366;12.350;2023-03-14T00:54:04;98087.66;;;10.27;100.00
66681;BME280;53575;51.366;12.350;2023-03-14T00:56:30;98088.31;;;10.32;100.00
66681;BME280;53575;51.366;12.350;2023-03-14T00:58:56;98096.88;;;10.36;100.00
66681;BME280;53575;51.366;12.350;2023-03-14T01:01:22;98077.97;;;10.29;100.00
66681;BME280;53575;51.366;12.350;2023-03-14T01:03:51;98095.81;;;10.40;100.00
66681;BME280;53575;51.366;12.350;2023-03-14T01:06:19;98104.47;;;10.42;100.00
66681;BME280;53575;51.366;12.350;2023-03-14T01:08:45;98110.56;;;10.41;100.00
66681;BME280;53575;51.366;12.350;2023-03-14T01:11:14;98120.84;;;10.45;100.00
66681;BME280;53575;51.366;12.350;2023-03-14T01:13:40;98120.88;;;10.44;100.00
66681;BME280;53575;51.366;12.350;2023-03-14T01:16:08;98123.50;;;10.44;100.00
66681;BME280;53575;51.366;12.350;2023-03-14T01:18:35;98121.53;;;10.49;100.00
66681;BME280;53575;51.366;12.350;2023-03-14T01:21:02;98126.53;;;10.55;100.00
66681;BME280;53575;51.366;12.350;2023-03-14T01:23:28;98121.22;;;10.57;100.00
66681;BME280;53575;51.366;12.350;2023-03-14T01:25:53;98121.00;;;10.63;99.55
66681;BME280;53575;51.366;12.350;2023-03-14T01:28:19;98122.56;;;10.67;99.07
66681;BME280;53575;51.366;12.350;2023-03-14T01:30:44;98127.75;;;10.68;98.10
66681;BME280;53575;51.366;12.350;2023-03-14T01:33:10;98121.50;;;10.71;98.08
66681;BME280;53575;51.366;12.350;2023-03-14T01:35:36;98135.41;;;10.71;97.60
66681;BME280;53575;51.366;12.350;2023-03-14T01:38:01;98126.50;;;10.77;97.17
66681;BME280;53575;51.366;12.350;2023-03-14T01:40:27;98123.88;;;10.77;96.81
66681;BME280;53575;51.366;12.350;2023-03-14T01:42:57;98116.50;;;10.87;95.73
66681;BME280;53575;51.366;12.350;2023-03-14T01:48:28;98120.66;;;10.91;95.27
66681;BME280;53575;51.366;12.350;2023-03-14T01:50:57;98121.59;;;10.90;94.93
66681;BME280;53575;51.366;12.350;2023-03-14T01:53:24;98117.34;;;10.87;95.00
66681;BME280;53575;51.366;12.350;2023-03-14T01:55:52;98115.63;;;10.86;95.06
66681;BME280;53575;51.366;12.350;2023-03-14T01:58:19;98107.94;;;10.83;94.99
66681;BME280;53575;51.366;12.350;2023-03-14T02:00:45;98112.25;;;10.84;95.11
66681;BME280;53575;51.366;12.350;2023-03-14T02:03:16;98096.38;;;10.68;95.70
66681;BME280;53575;51.366;12.350;2023-03-14T02:05:43;98093.63;;;10.71;95.89
66681;BME280;53575;51.366;12.350;2023-03-14T02:08:14;98076.38;;;10.67;95.79
66681;BME280;53575;51.366;12.350;2023-03-14T02:10:43;98075.81;;;10.61;96.08
66681;BME280;53575;51.366;12.350;2023-03-14T02:13:10;98078.28;;;10.64;95.57
66681;BME280;53575;51.366;12.350;2023-03-14T02:15:36;98071.44;;;10.61;95.90
66681;BME280;53575;51.366;12.350;2023-03-14T02:18:03;98085.22;;;10.65;95.48
66681;BME280;53575;51.366;12.350;2023-03-14T02:20:38;98073.31;;;10.58;95.66
66681;BME280;53575;51.366;12.350;2023-03-14T02:23:06;98067.31;;;10.56;95.86
66681;BME280;53575;51.366;12.350;2023-03-14T02:28:01;98064.78;;;10.54;95.86
66681;BME280;53575;51.366;12.350;2023-03-14T02:30:29;98066.53;;;10.54;95.28
66681;BME280;53575;51.366;12.350;2023-03-14T02:35:28;98045.97;;;10.46;95.36
66681;BME280;53575;51.366;12.350;2023-03-14T02:37:57;98037.22;;;10.47;95.31
66681;BME280;53575;51.366;12.350;2023-03-14T02:40:26;98032.97;;;10.44;95.41
66681;BME280;53575;51.366;12.350;2023-03-14T02:42:51;98032.06;;;10.45;95.29
66681;BME280;53575;51.366;12.350;2023-03-14T02:48:18;98035.66;;;10.43;94.83
66681;BME280;53575;51.366;12.350;2023-03-14T02:50:47;98032.25;;;10.41;95.09
66681;BME280;53575;51.366;12.350;2023-03-14T02:53:19;98020.19;;;10.38;94.66
66681;BME280;53575;51.366;12.350;2023-03-14T02:55:47;98042.50;;;10.45;94.02
66681;BME280;53575;51.366;12.350;2023-03-14T02:58:13;98031.53;;;10.37;94.38
66681;BME280;53575;51.366;12.350;2023-03-14T03:00:38;98030.56;;;10.40;93.91
66681;BME280;53575;51.366;12.350;2023-03-14T03:03:04;98028.03;;;10.38;93.54
66681;BME280;53575;51.366;12.350;2023-03-14T03:05:31;98024.25;;;10.45;92.91
66681;BME280;53575;51.366;12.350;2023-03-14T03:07:57;98026.91;;;10.44;92.66
66681;BME280;53575;51.366;12.350;2023-03-14T03:10:23;98030.44;;;10.43;92.71
66681;BME280;53575;51.366;12.350;2023-03-14T03:12:48;98029.31;;;10.48;92.39
66681;BME280;53575;51.366;12.350;2023-03-14T03:15:14;98038.13;;;10.46;92.36
66681;BME280;53575;51.366;12.350;2023-03-14T03:17:39;98048.06;;;10.58;91.34
66681;BME280;53575;51.366;12.350;2023-03-14T03:20:05;98046.28;;;10.59;91.56
66681;BME280;53575;51.366;12.350;2023-03-14T03:22:33;98048.69;;;10.63;90.97
66681;BME280;53575;51.366;12.350;2023-03-14T03:24:59;98048.44;;;10.69;90.50
66681;BME280;53575;51.366;12.350;2023-03-14T03:27:24;98035.25;;;10.72;89.88
66681;BME280;53575;51.366;12.350;2023-03-14T03:29:50;98036.09;;;10.73;89.74
66681;BME280;53575;51.366;12.350;2023-03-14T03:32:16;98024.41;;;10.82;88.68
66681;BME280;53575;51.366;12.350;2023-03-14T03:34:41;98016.44;;;10.85;88.22
66681;BME280;53575;51.366;12.350;2023-03-14T03:37:07;98018.66;;;10.73;88.47
66681;BME280;53575;51.366;12.350;2023-03-14T03:39:32;98015.63;;;10.83;87.64
66681;BME280;53575;51.366;12.350;2023-03-14T03:41:57;98017.41;;;10.82;86.95
66681;BME280;53575;51.366;12.350;2023-03-14T03:44:23;98008.31;;;10.91;86.17
66681;BME280;53575;51.366;12.350;2023-03-14T03:46:48;97998.16;;;10.85;86.33
66681;BME280;53575;51.366;12.350;2023-03-14T03:49:13;98005.66;;;10.92;85.24
66681;BME280;53575;51.366;12.350;2023-03-14T03:51:39;97992.44;;;10.95;84.42
66681;BME280;53575;51.366;12.350;2023-03-14T03:54:05;97980.16;;;10.97;83.22
66681;BME280;53575;51.366;12.350;2023-03-14T03:56:30;97985.25;;;11.01;82.66
66681;BME280;53575;51.366;12.350;2023-03-14T03:58:56;97983.56;;;11.00;82.30
66681;BME280;53575;51.366;12.350;2023-03-14T04:01:22;97988.91;;;10.96;82.56
66681;BME280;53575;51.366;12.350;2023-03-14T04:03:47;97983.94;;;10.90;82.78
66681;BME280;53575;51.366;12.350;2023-03-14T04:06:13;97988.63;;;10.84;82.94
66681;BME280;53575;51.366;12.350;2023-03-14T04:08:38;97988.09;;;10.76;83.39
66681;BME280;53575;51.366;12.350;2023-03-14T04:11:05;97987.91;;;10.80;83.14
66681;BME280;53575;51.366;12.350;2023-03-14T04:13:31;97992.09;;;10.84;82.79
66681;BME280;53575;51.366;12.350;2023-03-14T04:15:56;97988.88;;;10.78;83.08
66681;BME280;53575;51.366;12.350;2023-03-14T04:18:23;97997.22;;;10.86;82.92
66681;BME280;53575;51.366;12.350;2023-03-14T04:20:55;97992.13;;;10.83;83.03
66681;BME280;53575;51.366;12.350;2023-03-14T04:23:22;97984.41;;;10.80;83.29
66681;BME280;53575;51.366;12.350;2023-03-14T04:25:50;97993.56;;;10.90;82.47
66681;BME280;53575;51.366;12.350;2023-03-14T04:28:15;97984.88;;;10.89;82.93
66681;BME280;53575;51.366;12.350;2023-03-14T04:30:41;97975.22;;;10.91;82.41
66681;BME280;53575;51.366;12.350;2023-03-14T04:33:06;97973.78;;;10.84;83.30
66681;BME280;53575;51.366;12.350;2023-03-14T04:35:32;97970.34;;;10.84;83.31
66681;BME280;53575;51.366;12.350;2023-03-14T04:37:58;97962.75;;;10.78;83.39
66681;BME280;53575;51.366;12.350;2023-03-14T04:40:24;97961.28;;;10.91;83.59
66681;BME280;53575;51.366;12.350;2023-03-14T04:42:50;97966.84;;;10.83;83.55
66681;BME280;53575;51.366;12.350;2023-03-14T04:45:15;97960.00;;;10.81;84.02
66681;BME280;53575;51.366;12.350;2023-03-14T04:47:40;97951.00;;;10.88;83.26
66681;BME280;53575;51.366;12.350;2023-03-14T04:50:07;97954.00;;;10.79;84.45
66681;BME280;53575;51.366;12.350;2023-03-14T04:52:32;97954.66;;;10.84;84.24
66681;BME280;53575;51.366;12.350;2023-03-14T04:54:58;97943.75;;;10.74;84.81
66681;BME280;53575;51.366;12.350;2023-03-14T04:57:23;97945.94;;;10.83;84.11
66681;BME280;53575;51.366;12.350;2023-03-14T04:59:49;97935.72;;;10.79;84.96
66681;BME280;53575;51.366;12.350;2023-03-14T05:02:15;97940.44;;;10.70;85.44
66681;BME280;53575;51.366;12.350;2023-03-14T05:04:41;97939.81;;;10.65;85.47
66681;BME280;53575;51.366;12.350;2023-03-14T05:07:06;97928.84;;;10.57;85.72
66681;BME280;53575;51.366;12.350;2023-03-14T05:09:32;97939.63;;;10.49;86.50
66681;BME280;53575;51.366;12.350;2023-03-14T05:11:57;97927.69;;;10.44;86.59
66681;BME280;53575;51.366;12.350;2023-03-14T05:14:22;97920.69;;;10.44;86.47
66681;BME280;53575;51.366;12.350;2023-03-14T05:16:48;97928.22;;;10.32;86.29
66681;BME280;53575;51.366;12.350;2023-03-14T05:19:13;97922.91;;;10.33;86.10
66681;BME280;53575;51.366;12.350;2023-03-14T05:21:38;97929.91;;;10.33;86.37
66681;BME280;53575;51.366;12.350;2023-03-14T05:24:04;97934.53;;;10.46;85.49
66681;BME280;53575;51.366;12.350;2023-03-14T05:26:30;97942.75;;;10.37;85.92
66681;BME280;53575;51.366;12.350;2023-03-14T05:28:55;97939.56;;;10.51;85.21
66681;BME280;53575;51.366;12.350;2023-03-14T05:31:21;97929.09;;;10.51;84.82
66681;BME280;53575;51.366;12.350;2023-03-14T05:33:46;97936.16;;;10.49;85.05
66681;BME280;53575;51.366;12.350;2023-03-14T05:36:12;97931.22;;;10.43;85.64
66681;BME280;53575;51.366;12.350;2023-03-14T05:38:37;97924.03;;;10.48;85.25
66681;BME280;53575;51.366;12.350;2023-03-14T05:41:03;97927.09;;;10.37;85.64
66681;BME280;53575;51.366;12.350;2023-03-14T05:43:28;97935.00;;;10.36;85.74
66681;BME280;53575;51.366;12.350;2023-03-14T05:45:54;97930.03;;;10.30;85.60
66681;BME280;53575;51.366;12.350;2023-03-14T05:48:19;97935.63;;;10.41;85.59
66681;BME280;53575;51.366;12.350;2023-03-14T05:50:46;97932.06;;;10.43;85.56
66681;BME280;53575;51.366;12.350;2023-03-14T05:53:12;97926.00;;;10.43;85.04
66681;BME280;53575;51.366;12.350;2023-03-14T05:55:38;97933.50;;;10.51;84.88
66681;BME280;53575;51.366;12.350;2023-03-14T05:58:03;97929.81;;;10.55;84.86
66681;BME280;53575;51.366;12.350;2023-03-14T06:00:28;97935.19;;;10.52;84.82
66681;BME280;53575;51.366;12.350;2023-03-14T06:02:54;97936.72;;;10.56;84.94
66681;BME280;53575;51.366;12.350;2023-03-14T06:05:19;97936.47;;;10.62;84.31
66681;BME280;53575;51.366;12.350;2023-03-14T06:07:44;97948.06;;;10.75;83.59
66681;BME280;53575;51.366;12.350;2023-03-14T06:10:10;97945.09;;;10.83;83.00
66681;BME280;53575;51.366;12.350;2023-03-14T06:12:35;97947.50;;;10.87;82.84
66681;BME280;53575;51.366;12.350;2023-03-14T06:15:01;97941.59;;;10.84;82.78
66681;BME280;53575;51.366;12.350;2023-03-14T06:17:26;97934.78;;;10.80;82.75
66681;BME280;53575;51.366;12.350;2023-03-14T06:19:52;97934.59;;;10.84;82.53
66681;BME280;53575;51.366;12.350;2023-03-14T06:22:17;97924.06;;;10.86;82.45
66681;BME280;53575;51.366;12.350;2023-03-14T06:24:43;97925.00;;;10.85;82.55
66681;BME280;53575;51.366;12.350;2023-03-14T06:27:08;97932.75;;;10.86;82.61
66681;BME280;53575;51.366;12.350;2023-03-14T06:29:33;97932.69;;;10.88;82.77
66681;BME280;53575;51.366;12.350;2023-03-14T06:31:59;97926.91;;;10.81;82.86
66681;BME280;53575;51.366;12.350;2023-03-14T06:34:24;97930.84;;;10.71;83.46
66681;BME280;53575;51.366;12.350;2023-03-14T06:36:50;97934.16;;;10.74;83.10
66681;BME280;53575;51.366;12.350;2023-03-14T06:39:16;97932.25;;;10.78;82.96
66681;BME280;53575;51.366;12.350;2023-03-14T06:41:41;97946.94;;;10.81;83.41
66681;BME280;53575;51.366;12.350;2023-03-14T06:44:06;97949.56;;;10.81;83.37
66681;BME280;53575;51.366;12.350;2023-03-14T06:46:32;97950.47;;;10.80;83.19
66681;BME280;53575;51.366;12.350;2023-03-14T06:48:57;97956.91;;;10.72;83.98
66681;BME280;53575;51.366;12.350;2023-03-14T06:51:23;97969.81;;;10.76;83.72
66681;BME280;53575;51.366;12.350;2023-03-14T06:53:48;97974.56;;;10.86;83.11
66681;BME280;53575;51.366;12.350;2023-03-14T06:56:14;97967.56;;;10.87;83.08
66681;BME280;53575;51.366;12.350;2023-03-14T06:58:39;97965.88;;;10.86;83.30
66681;BME280;53575;51.366;12.350;2023-03-14T07:01:05;97978.94;;;10.86;83.29
66681;BME280;53575;51.366;12.350;2023-03-14T07:03:30;97978.94;;;10.86;83.10
66681;BME280;53575;51.366;12.350;2023-03-14T07:05:56;97971.09;;;10.86;82.65
66681;BME280;53575;51.366;12.350;2023-03-14T07:08:21;97973.72;;;10.86;82.54
66681;BME280;53575;51.366;12.350;2023-03-14T07:10:47;97968.63;;;10.83;82.14
66681;BME280;53575;51.366;12.350;2023-03-14T07:13:12;97965.97;;;10.84;82.33
66681;BME280;53575;51.366;12.350;2023-03-14T07:15:38;97962.56;;;10.82;81.61
66681;BME280;53575;51.366;12.350;2023-03-14T07:18:03;97951.84;;;10.88;80.99
66681;BME280;53575;51.366;12.350;2023-03-14T07:20:29;97936.22;;;10.87;81.47
66681;BME280;53575;51.366;12.350;2023-03-14T07:22:57;97935.94;;;10.93;80.51
66681;BME280;53575;51.366;12.350;2023-03-14T07:25:25;97919.28;;;10.95;79.77
66681;BME280;53575;51.366;12.350;2023-03-14T07:27:50;97927.03;;;10.97;79.58
66681;BME280;53575;51.366;12.350;2023-03-14T07:30:16;97931.00;;;11.06;79.46
66681;BME280;53575;51.366;12.350;2023-03-14T07:32:41;97919.97;;;11.18;79.05
66681;BME280;53575;51.366;12.350;2023-03-14T07:35:07;97925.84;;;11.23;78.34
66681;BME280;53575;51.366;12.350;2023-03-14T07:37:33;97925.47;;;11.31;77.95
66681;BME280;53575;51.366;12.350;2023-03-14T07:39:58;97925.16;;;11.37;77.38
66681;BME280;53575;51.366;12.350;2023-03-14T07:42:23;97931.09;;;11.40;77.42
66681;BME280;53575;51.366;12.350;2023-03-14T07:44:49;97935.78;;;11.34;77.96
66681;BME280;53575;51.366;12.350;2023-03-14T07:47:14;97939.97;;;11.38;77.50
66681;BME280;53575;51.366;12.350;2023-03-14T07:49:40;97929.56;;;11.36;77.43
66681;BME280;53575;51.366;12.350;2023-03-14T07:52:05;97942.44;;;11.22;77.95
66681;BME280;53575;51.366;12.350;2023-03-14T07:54:30;97944.97;;;11.23;77.58
66681;BME280;53575;51.366;12.350;2023-03-14T07:56:56;97944.75;;;11.28;77.87
66681;BME280;53575;51.366;12.350;2023-03-14T07:59:23;97947.50;;;11.25;77.99
66681;BME280;53575;51.366;12.350;2023-03-14T08:01:49;97955.34;;;11.25;77.90
66681;BME280;53575;51.366;12.350;2023-03-14T08:04:14;97956.53;;;11.37;78.16
66681;BME280;53575;51.366;12.350;2023-03-14T08:06:39;97952.59;;;11.47;77.28
66681;BME280;53575;51.366;12.350;2023-03-14T08:09:05;97952.00;;;11.59;76.90
66681;BME280;53575;51.366;12.350;2023-03-14T08:11:30;97946.38;;;11.67;76.21
66681;BME280;53575;51.366;12.350;2023-03-14T08:13:56;97944.09;;;11.61;76.54
66681;BME280;53575;51.366;12.350;2023-03-14T08:16:21;97933.47;;;11.64;76.74
66681;BME280;53575;51.366;12.350;2023-03-14T08:18:47;97928.50;;;11.77;75.64
66681;BME280;53575;51.366;12.350;2023-03-14T08:21:13;97936.00;;;11.84;75.13
66681;BME280;53575;51.366;12.350;2023-03-14T08:23:39;97933.47;;;12.00;75.11
66681;BME280;53575;51.366;12.350;2023-03-14T08:26:04;97935.00;;;12.22;73.74
66681;BME280;53575;51.366;12.350;2023-03-14T08:28:30;97926.19;;;12.40;73.40
66681;BME280;53575;51.366;12.350;2023-03-14T08:30:58;97934.84;;;12.75;72.30
66681;BME280;53575;51.366;12.350;2023-03-14T08:33:24;97931.00;;;12.98;71.25
66681;BME280;53575;51.366;12.350;2023-03-14T08:35:57;97918.13;;;12.93;70.88
66681;BME280;53575;51.366;12.350;2023-03-14T08:38:23;97919.66;;;12.98;70.36
66681;BME280;53575;51.366;12.350;2023-03-14T08:40:48;97924.13;;;13.11;69.87
66681;BME280;53575;51.366;12.350;2023-03-14T08:43:15;97920.50;;;12.98;69.75
66681;BME280;53575;51.366;12.350;2023-03-14T08:45:40;97924.38;;;12.91;70.10
66681;BME280;53575;51.366;12.350;2023-03-14T08:48:05;97929.47;;;12.94;69.88
66681;BME280;53575;51.366;12.350;2023-03-14T08:50:31;97919.25;;;13.05;69.89
66681;BME280;53575;51.366;12.350;2023-03-14T08:52:56;97909.34;;;13.10;69.70
66681;BME280;53575;51.366;12.350;2023-03-14T08:55:25;97917.47;;;13.22;69.11
66681;BME280;53575;51.366;12.350;2023-03-14T08:57:52;97919.97;;;13.25;69.07
66681;BME280;53575;51.366;12.350;2023-03-14T09:00:18;97920.50;;;13.14;69.57
66681;BME280;53575;51.366;12.350;2023-03-14T09:02:43;97926.44;;;13.02;69.65
66681;BME280;53575;51.366;12.350;2023-03-14T09:05:09;97932.50;;;13.02;69.23
66681;BME280;53575;51.366;12.350;2023-03-14T09:07:35;97922.28;;;13.13;69.12
66681;BME280;53575;51.366;12.350;2023-03-14T09:10:01;97922.75;;;13.37;68.57
66681;BME280;53575;51.366;12.350;2023-03-14T09:12:26;97928.66;;;13.41;68.13
66681;BME280;53575;51.366;12.350;2023-03-14T09:14:52;97926.38;;;13.51;68.23
66681;BME280;53575;51.366;12.350;2023-03-14T09:17:17;97925.19;;;13.40;68.55
66681;BME280;53575;51.366;12.350;2023-03-14T09:19:42;97931.63;;;13.35;68.19
66681;BME280;53575;51.366;12.350;2023-03-14T09:22:08;97923.81;;;13.17;68.71
66681;BME280;53575;51.366;12.350;2023-03-14T09:24:33;97935.81;;;13.06;69.41
66681;BME280;53575;51.366;12.350;2023-03-14T09:26:59;97937.91;;;12.99;69.74
66681;BME280;53575;51.366;12.350;2023-03-14T09:29:24;97922.28;;;12.98;69.68
66681;BME280;53575;51.366;12.350;2023-03-14T09:31:50;97928.03;;;13.20;68.82
66681;BME280;53575;51.366;12.350;2023-03-14T09:34:15;97936.75;;;13.21;68.96
66681;BME280;53575;51.366;12.350;2023-03-14T09:36:41;97936.09;;;13.17;69.09
66681;BME280;53575;51.366;12.350;2023-03-14T09:39:09;97940.28;;;13.20;68.14
66681;BME280;53575;51.366;12.350;2023-03-14T09:41:37;97937.47;;;13.24;67.83
66681;BME280;53575;51.366;12.350;2023-03-14T09:44:12;97942.31;;;13.32;68.01
66681;BME280;53575;51.366;12.350;2023-03-14T09:46:40;97932.66;;;13.32;67.97
66681;BME280;53575;51.366;12.350;2023-03-14T09:49:20;97940.25;;;13.37;68.67
66681;BME280;53575;51.366;12.350;2023-03-14T09:51:50;97943.41;;;13.44;68.97
66681;BME280;53575;51.366;12.350;2023-03-14T09:57:24;97951.31;;;13.58;68.00
66681;BME280;53575;51.366;12.350;2023-03-14T09:59:51;97957.25;;;13.46;67.16
66681;BME280;53575;51.366;12.350;2023-03-14T10:02:22;97945.41;;;13.38;67.35
66681;BME280;53575;51.366;12.350;2023-03-14T10:04:50;97949.97;;;13.35;67.23
66681;BME280;53575;51.366;12.350;2023-03-14T10:07:19;97942.09;;;13.35;67.63
66681;BME280;53575;51.366;12.350;2023-03-14T10:09:50;97946.72;;;13.14;67.53
66681;BME280;53575;51.366;12.350;2023-03-14T10:12:17;97946.16;;;13.09;68.04
66681;BME280;53575;51.366;12.350;2023-03-14T10:15:10;97953.66;;;12.99;69.04
66681;BME280;53575;51.366;12.350;2023-03-14T10:17:54;97943.72;;;12.88;69.32
66681;BME280;53575;51.366;12.350;2023-03-14T10:20:31;97948.81;;;12.91;69.51
66681;BME280;53575;51.366;12.350;2023-03-14T10:23:18;97930.38;;;12.93;69.44
66681;BME280;53575;51.366;12.350;2023-03-14T10:25:48;97940.25;;;12.88;69.25
66681;BME280;53575;51.366;12.350;2023-03-14T10:28:28;97934.44;;;12.83;68.79
66681;BME280;53575;51.366;12.350;2023-03-14T10:30:55;97949.09;;;13.03;68.56
66681;BME280;53575;51.366;12.350;2023-03-14T10:33:41;97948.38;;;13.32;67.16
66681;BME280;53575;51.366;12.350;2023-03-14T10:36:23;97971.56;;;13.40;67.49
66681;BME280;53575;51.366;12.350;2023-03-14T10:38:57;97989.69;;;13.45;66.13
66681;BME280;53575;51.366;12.350;2023-03-14T10:41:30;97959.97;;;13.44;66.48
66681;BME280;53575;51.366;12.350;2023-03-14T10:43:57;97957.66;;;13.54;66.57
66681;BME280;53575;51.366;12.350;2023-03-14T10:46:25;97963.84;;;13.53;66.21
66681;BME280;53575;51.366;12.350;2023-03-14T10:48:53;97954.91;;;13.41;66.31
66681;BME280;53575;51.366;12.350;2023-03-14T10:51:19;97948.13;;;13.37;66.51
66681;BME280;53575;51.366;12.350;2023-03-14T10:53:56;97956.00;;;13.37;66.77
66681;BME280;53575;51.366;12.350;2023-03-14T10:56:23;97954.38;;;13.34;67.41
66681;BME280;53575;51.366;12.350;2023-03-14T10:58:51;97957.78;;;13.36;67.51
66681;BME280;53575;51.366;12.350;2023-03-14T11:12:41;97973.78;;;13.14;68.66
66681;BME280;53575;51.366;12.350;2023-03-14T11:20:46;97954.81;;;13.27;68.55
66681;BME280;53575;51.366;12.350;2023-03-14T11:23:21;97948.72;;;13.26;68.70
66681;BME280;53575;51.366;12.350;2023-03-14T11:25:56;97953.38;;;13.37;68.78
66681;BME280;53575;51.366;12.350;2023-03-14T11:28:29;97944.81;;;13.49;68.95
66681;BME280;53575;51.366;12.350;2023-03-14T11:31:14;97950.31;;;13.45;68.69
66681;BME280;53575;51.366;12.350;2023-03-14T11:37:06;97947.16;;;13.22;69.30
66681;BME280;53575;51.366;12.350;2023-03-14T11:39:45;97939.63;;;13.16;69.46
66681;BME280;53575;51.366;12.350;2023-03-14T11:42:16;97950.09;;;13.16;69.82
66681;BME280;53575;51.366;12.350;2023-03-14T11:44:46;97948.44;;;13.31;69.67
66681;BME280;53575;51.366;12.350;2023-03-14T11:49:51;97948.13;;;13.37;69.46
66681;BME280;53575;51.366;12.350;2023-03-14T11:52:30;97941.88;;;13.39;69.56
66681;BME280;53575;51.366;12.350;2023-03-14T11:55:24;97946.44;;;13.36;69.92
66681;BME280;53575;51.366;12.350;2023-03-14T11:57:53;97947.28;;;13.52;69.37
66681;BME280;53575;51.366;12.350;2023-03-14T12:00:23;97936.78;;;13.52;68.92
66681;BME280;53575;51.366;12.350;2023-03-14T12:03:11;97949.56;;;13.27;69.42
66681;BME280;53575;51.366;12.350;2023-03-14T12:08:39;97942.00;;;13.21;69.84
66681;BME280;53575;51.366;12.350;2023-03-14T12:11:13;97932.16;;;13.08;70.31
66681;BME280;53575;51.366;12.350;2023-03-14T12:13:41;97936.22;;;12.98;71.17
66681;BME280;53575;51.366;12.350;2023-03-14T12:18:49;97929.63;;;13.07;71.92
66681;BME280;53575;51.366;12.350;2023-03-14T12:21:15;97930.47;;;13.07;71.77
66681;BME280;53575;51.366;12.350;2023-03-14T12:23:44;97934.19;;;13.03;71.89
66681;BME280;53575;51.366;12.350;2023-03-14T12:26:15;97935.88;;;13.04;72.34
66681;BME280;53575;51.366;12.350;2023-03-14T12:28:50;97962.44;;;12.82;77.48
66681;BME280;53575;51.366;12.350;2023-03-14T12:50:14;97913.81;;;13.08;79.05
66681;BME280;53575;51.366;12.350;2023-03-14T12:55:20;97902.47;;;13.08;77.24
66681;BME280;53575;51.366;12.350;2023-03-14T13:00:58;97902.75;;;13.03;77.24
66681;BME280;53575;51.366;12.350;2023-03-14T13:03:26;97885.66;;;12.96;76.85
66681;BME280;53575;51.366;12.350;2023-03-14T13:06:02;97875.94;;;13.14;76.44
66681;BME280;53575;51.366;12.350;2023-03-14T13:11:07;97872.81;;;13.55;72.60
66681;BME280;53575;51.366;12.350;2023-03-14T13:13:35;97862.97;;;13.58;71.33
66681;BME280;53575;51.366;12.350;2023-03-14T13:16:03;97869.50;;;13.81;70.36
66681;BME280;53575;51.366;12.350;2023-03-14T13:18:35;97866.09;;;14.09;68.52
66681;BME280;53575;51.366;12.350;2023-03-14T13:21:18;97866.00;;;14.11;67.22
66681;BME280;53575;51.366;12.350;2023-03-14T13:26:34;97858.06;;;13.82;68.30
66681;BME280;53575;51.366;12.350;2023-03-14T13:29:08;97853.66;;;13.83;68.42
66681;BME280;53575;51.366;12.350;2023-03-14T13:31:34;97866.84;;;13.97;68.18
66681;BME280;53575;51.366;12.350;2023-03-14T13:34:09;97852.06;;;14.39;65.78
66681;BME280;53575;51.366;12.350;2023-03-14T13:36:35;97855.06;;;14.47;66.23
66681;BME280;53575;51.366;12.350;2023-03-14T13:39:01;97854.28;;;14.88;63.97
66681;BME280;53575;51.366;12.350;2023-03-14T13:41:28;97835.97;;;15.28;62.25
66681;BME280;53575;51.366;12.350;2023-03-14T13:44:16;97838.56;;;15.82;60.38
66681;BME280;53575;51.366;12.350;2023-03-14T13:46:42;97848.44;;;15.66;60.37
66681;BME280;53575;51.366;12.350;2023-03-14T13:49:15;97846.28;;;15.58;61.14
66681;BME280;53575;51.366;12.350;2023-03-14T13:51:43;97850.72;;;15.97;59.11
66681;BME280;53575;51.366;12.350;2023-03-14T13:54:20;97850.31;;;16.16;58.41
66681;BME280;53575;51.366;12.350;2023-03-14T13:56:46;97855.03;;;15.86;58.33
66681;BME280;53575;51.366;12.350;2023-03-14T14:01:47;97846.72;;;16.55;56.18
66681;BME280;53575;51.366;12.350;2023-03-14T14:04:18;97845.03;;;16.80;55.15